sensor_id;sensor_type;location;lat;lon;timestamp;temperature;humidity
18648;DHT22;9453;50.294;18.644;2023-08-01T04:03:06;18.30;96.80
18648;DHT22;9453;50.294;18.644;2023-08-01T04:05:33;18.30;96.80
18648;DHT22;9453;50.294;18.644;2023-08-01T04:08:00;18.30;96.60
18648;DHT22;9453;50.294;18.644;2023-08-01T04:10:27;18.30;96.70
18648;DHT22;9453;50.294;18.644;2023-08-01T04:12:54;18.50;96.50
18648;DHT22;9453;50.294;18.644;2023-08-01T04:15:20;18.60;96.50
18648;DHT22;9453;50.294;18.644;2023-08-01T04:17:47;18.60;96.30
18648;DHT22;9453;50.294;18.644;2023-08-01T04:20:16;18.80;96.20
18648;DHT22;9453;50.294;18.644;2023-08-01T04:22:43;18.90;95.80
18648;DHT22;9453;50.294;18.644;2023-08-01T04:25:09;19.10;95.70
18648;DHT22;9453;50.294;18.644;2023-08-01T04:27:36;19.20;95.50
18648;DHT22;9453;50.294;18.644;2023-08-01T04:30:04;19.30;95.00
18648;DHT22;9453;50.294;18.644;2023-08-01T04:32:31;19.40;95.10
18648;DHT22;9453;50.294;18.644;2023-08-01T04:34:58;19.50;95.10
18648;DHT22;9453;50.294;18.644;2023-08-01T04:37:26;19.50;94.50
18648;DHT22;9453;50.294;18.644;2023-08-01T04:39:53;19.50;94.10
18648;DHT22;9453;50.294;18.644;2023-08-01T04:42:20;19.60;93.90
18648;DHT22;9453;50.294;18.644;2023-08-01T04:44:47;19.50;93.80
18648;DHT22;9453;50.294;18.644;2023-08-01T04:47:14;19.50;93.80
18648;DHT22;9453;50.294;18.644;2023-08-01T04:49:41;19.50;93.90
18648;DHT22;9453;50.294;18.644;2023-08-01T04:52:08;19.50;93.70
18648;DHT22;9453;50.294;18.644;2023-08-01T04:54:36;19.70;95.00
18648;DHT22;9453;50.294;18.644;2023-08-01T04:57:04;19.90;94.80
18648;DHT22;9453;50.294;18.644;2023-08-01T04:59:31;20.10;94.00
18648;DHT22;9453;50.294;18.644;2023-08-01T05:01:58;20.20;93.60
18648;DHT22;9453;50.294;18.644;2023-08-01T05:04:25;20.30;93.60
18648;DHT22;9453;50.294;18.644;2023-08-01T05:06:52;20.40;93.10
18648;DHT22;9453;50.294;18.644;2023-08-01T05:09:19;20.40;92.90
18648;DHT22;9453;50.294;18.644;2023-08-01T05:11:47;20.40;92.80
18648;DHT22;9453;50.294;18.644;2023-08-01T05:14:14;20.60;92.90
18648;DHT22;9453;50.294;18.644;2023-08-01T05:16:41;20.60;92.80
18648;DHT22;9453;50.294;18.644;2023-08-01T05:19:08;20.60;93.00
18648;DHT22;9453;50.294;18.644;2023-08-01T05:21:35;20.70;93.10
18648;DHT22;9453;50.294;18.644;2023-08-01T05:24:02;20.80;93.10
18648;DHT22;9453;50.294;18.644;2023-08-01T05:26:28;20.90;93.10
18648;DHT22;9453;50.294;18.644;2023-08-01T05:28:57;21.00;93.00
18648;DHT22;9453;50.294;18.644;2023-08-01T05:31:24;21.20;93.10
18648;DHT22;9453;50.294;18.644;2023-08-01T05:33:50;21.20;92.90
18648;DHT22;9453;50.294;18.644;2023-08-01T05:36:17;21.20;92.90
18648;DHT22;9453;50.294;18.644;2023-08-01T05:38:44;21.30;92.90
18648;DHT22;9453;50.294;18.644;2023-08-01T05:41:11;21.30;93.00
18648;DHT22;9453;50.294;18.644;2023-08-01T05:43:38;21.30;93.60
18648;DHT22;9453;50.294;18.644;2023-08-01T05:46:06;21.30;93.50
18648;DHT22;9453;50.294;18.644;2023-08-01T05:48:33;21.20;93.80
18648;DHT22;9453;50.294;18.644;2023-08-01T05:51:00;21.20;94.00
18648;DHT22;9453;50.294;18.644;2023-08-01T05:53:27;21.10;94.20
18648;DHT22;9453;50.294;18.644;2023-08-01T05:55:54;21.10;94.50
18648;DHT22;9453;50.294;18.644;2023-08-01T05:58:21;21.10;94.90
18648;DHT22;9453;50.294;18.644;2023-08-01T06:00:48;21.10;95.10
18648;DHT22;9453;50.294;18.644;2023-08-01T06:03:16;21.10;95.30
18648;DHT22;9453;50.294;18.644;2023-08-01T06:05:43;21.10;95.40
18648;DHT22;9453;50.294;18.644;2023-08-01T06:08:10;21.20;95.40
18648;DHT22;9453;50.294;18.644;2023-08-01T06:10:39;21.30;95.40
18648;DHT22;9453;50.294;18.644;2023-08-01T06:13:05;21.40;95.40
18648;DHT22;9453;50.294;18.644;2023-08-01T06:15:32;21.50;95.10
18648;DHT22;9453;50.294;18.644;2023-08-01T06:17:59;21.60;95.10
18648;DHT22;9453;50.294;18.644;2023-08-01T06:20:28;21.70;94.90
18648;DHT22;9453;50.294;18.644;2023-08-01T06:22:55;21.80;94.80
18648;DHT22;9453;50.294;18.644;2023-08-01T06:25:22;21.90;94.40
18648;DHT22;9453;50.294;18.644;2023-08-01T06:27:49;22.00;94.20
18648;DHT22;9453;50.294;18.644;2023-08-01T06:30:16;22.10;94.20
18648;DHT22;9453;50.294;18.644;2023-08-01T06:32:43;22.10;93.90
18648;DHT22;9453;50.294;18.644;2023-08-01T06:35:10;22.20;94.30
18648;DHT22;9453;50.294;18.644;2023-08-01T06:37:38;22.20;94.40
18648;DHT22;9453;50.294;18.644;2023-08-01T06:40:08;22.20;94.50
18648;DHT22;9453;50.294;18.644;2023-08-01T06:42:35;22.10;94.30
18648;DHT22;9453;50.294;18.644;2023-08-01T06:45:02;22.10;94.40
18648;DHT22;9453;50.294;18.644;2023-08-01T06:47:28;22.20;94.40
18648;DHT22;9453;50.294;18.644;2023-08-01T06:49:55;22.20;94.40
18648;DHT22;9453;50.294;18.644;2023-08-01T06:52:22;22.20;94.30
18648;DHT22;9453;50.294;18.644;2023-08-01T06:54:50;22.20;94.40
18648;DHT22;9453;50.294;18.644;2023-08-01T06:57:17;22.10;94.50
18648;DHT22;9453;50.294;18.644;2023-08-01T06:59:44;22.10;95.20
18648;DHT22;9453;50.294;18.644;2023-08-01T07:02:11;22.10;95.90
18648;DHT22;9453;50.294;18.644;2023-08-01T07:04:38;22.20;96.30
18648;DHT22;9453;50.294;18.644;2023-08-01T07:07:05;22.40;96.50
18648;DHT22;9453;50.294;18.644;2023-08-01T07:09:34;22.60;96.60
18648;DHT22;9453;50.294;18.644;2023-08-01T07:12:03;22.80;96.30
18648;DHT22;9453;50.294;18.644;2023-08-01T07:14:30;22.90;96.00
18648;DHT22;9453;50.294;18.644;2023-08-01T07:16:57;23.00;95.80
18648;DHT22;9453;50.294;18.644;2023-08-01T07:19:24;23.10;94.80
18648;DHT22;9453;50.294;18.644;2023-08-01T07:21:50;23.10;95.30
18648;DHT22;9453;50.294;18.644;2023-08-01T07:24:17;23.10;95.10
18648;DHT22;9453;50.294;18.644;2023-08-01T07:26:44;23.00;94.80
18648;DHT22;9453;50.294;18.644;2023-08-01T07:29:13;23.00;94.80
18648;DHT22;9453;50.294;18.644;2023-08-01T07:31:41;22.90;95.30
18648;DHT22;9453;50.294;18.644;2023-08-01T07:34:08;22.80;96.10
18648;DHT22;9453;50.294;18.644;2023-08-01T07:36:35;22.70;97.00
18648;DHT22;9453;50.294;18.644;2023-08-01T07:39:02;22.50;98.10
18648;DHT22;9453;50.294;18.644;2023-08-01T07:41:29;22.40;98.80
18648;DHT22;9453;50.294;18.644;2023-08-01T07:43:56;22.30;99.60
18648;DHT22;9453;50.294;18.644;2023-08-01T07:46:24;22.10;99.90
18648;DHT22;9453;50.294;18.644;2023-08-01T07:48:51;22.10;99.90
18648;DHT22;9453;50.294;18.644;2023-08-01T07:51:19;22.20;99.90
18648;DHT22;9453;50.294;18.644;2023-08-01T07:53:46;22.20;99.90
18648;DHT22;9453;50.294;18.644;2023-08-01T07:56:13;22.30;99.90
18648;DHT22;9453;50.294;18.644;2023-08-01T07:58:40;22.50;99.90
18648;DHT22;9453;50.294;18.644;2023-08-01T08:01:07;22.60;99.90
18648;DHT22;9453;50.294;18.644;2023-08-01T08:03:35;22.80;99.90
18648;DHT22;9453;50.294;18.644;2023-08-01T08:06:02;22.90;99.90
18648;DHT22;9453;50.294;18.644;2023-08-01T08:08:31;22.90;99.90
18648;DHT22;9453;50.294;18.644;2023-08-01T08:10:59;23.00;99.90
18648;DHT22;9453;50.294;18.644;2023-08-01T08:13:26;23.00;99.90
18648;DHT22;9453;50.294;18.644;2023-08-01T08:15:55;22.90;99.90
18648;DHT22;9453;50.294;18.644;2023-08-01T08:18:22;22.80;99.90
18648;DHT22;9453;50.294;18.644;2023-08-01T08:20:50;22.70;99.90
18648;DHT22;9453;50.294;18.644;2023-08-01T08:23:17;22.60;99.90
18648;DHT22;9453;50.294;18.644;2023-08-01T08:25:45;22.50;99.90
18648;DHT22;9453;50.294;18.644;2023-08-01T08:28:12;22.30;99.90
18648;DHT22;9453;50.294;18.644;2023-08-01T08:30:40;22.30;99.90
18648;DHT22;9453;50.294;18.644;2023-08-01T08:33:07;22.20;99.90
18648;DHT22;9453;50.294;18.644;2023-08-01T08:35:36;22.20;99.90
18648;DHT22;9453;50.294;18.644;2023-08-01T08:38:04;22.20;99.90
18648;DHT22;9453;50.294;18.644;2023-08-01T08:40:32;22.20;99.90
18648;DHT22;9453;50.294;18.644;2023-08-01T08:43:01;22.10;99.90
18648;DHT22;9453;50.294;18.644;2023-08-01T08:45:29;22.00;99.90
18648;DHT22;9453;50.294;18.644;2023-08-01T08:48:01;22.00;99.90
18648;DHT22;9453;50.294;18.644;2023-08-01T08:50:30;22.00;99.90
18648;DHT22;9453;50.294;18.644;2023-08-01T08:52:58;22.10;99.90
18648;DHT22;9453;50.294;18.644;2023-08-01T08:55:27;22.10;99.90
18648;DHT22;9453;50.294;18.644;2023-08-01T08:57:55;22.20;99.90
18648;DHT22;9453;50.294;18.644;2023-08-01T09:00:23;22.20;99.90
18648;DHT22;9453;50.294;18.644;2023-08-01T09:02:50;22.20;99.90
18648;DHT22;9453;50.294;18.644;2023-08-01T09:05:17;22.20;99.90
18648;DHT22;9453;50.294;18.644;2023-08-01T09:07:48;22.10;99.90
18648;DHT22;9453;50.294;18.644;2023-08-01T09:10:16;22.10;99.90
18648;DHT22;9453;50.294;18.644;2023-08-01T09:12:44;22.10;99.90
18648;DHT22;9453;50.294;18.644;2023-08-01T09:15:12;22.00;99.90
18648;DHT22;9453;50.294;18.644;2023-08-01T09:17:48;22.00;99.90
18648;DHT22;9453;50.294;18.644;2023-08-01T09:20:15;22.00;99.90
18648;DHT22;9453;50.294;18.644;2023-08-01T09:22:43;22.10;99.90
18648;DHT22;9453;50.294;18.644;2023-08-01T09:25:10;22.10;99.90
18648;DHT22;9453;50.294;18.644;2023-08-01T09:27:38;22.20;99.90
18648;DHT22;9453;50.294;18.644;2023-08-01T09:30:09;22.20;99.90
18648;DHT22;9453;50.294;18.644;2023-08-01T09:32:37;22.30;99.90
18648;DHT22;9453;50.294;18.644;2023-08-01T09:35:04;22.30;99.90
18648;DHT22;9453;50.294;18.644;2023-08-01T09:37:41;22.40;99.90
18648;DHT22;9453;50.294;18.644;2023-08-01T09:40:09;22.50;99.90
18648;DHT22;9453;50.294;18.644;2023-08-01T09:42:39;22.50;99.90
18648;DHT22;9453;50.294;18.644;2023-08-01T09:45:12;22.60;99.90
18648;DHT22;9453;50.294;18.644;2023-08-01T09:47:40;22.60;99.90
18648;DHT22;9453;50.294;18.644;2023-08-01T09:50:08;22.60;99.90
18648;DHT22;9453;50.294;18.644;2023-08-01T09:52:35;22.50;99.90
18648;DHT22;9453;50.294;18.644;2023-08-01T09:55:03;22.50;99.90
18648;DHT22;9453;50.294;18.644;2023-08-01T09:57:30;22.50;99.90
18648;DHT22;9453;50.294;18.644;2023-08-01T09:59:58;22.30;99.90
18648;DHT22;9453;50.294;18.644;2023-08-01T10:02:29;22.10;99.90
18648;DHT22;9453;50.294;18.644;2023-08-01T10:04:57;22.00;99.90
18648;DHT22;9453;50.294;18.644;2023-08-01T10:07:28;21.90;99.90
18648;DHT22;9453;50.294;18.644;2023-08-01T10:09:58;21.80;99.90
18648;DHT22;9453;50.294;18.644;2023-08-01T10:12:26;21.70;99.90
18648;DHT22;9453;50.294;18.644;2023-08-01T10:14:53;21.60;99.90
18648;DHT22;9453;50.294;18.644;2023-08-01T10:17:21;21.60;99.90
18648;DHT22;9453;50.294;18.644;2023-08-01T10:19:50;21.60;99.90
18648;DHT22;9453;50.294;18.644;2023-08-01T10:22:18;21.60;99.90
18648;DHT22;9453;50.294;18.644;2023-08-01T10:24:45;21.70;99.90
18648;DHT22;9453;50.294;18.644;2023-08-01T10:27:13;21.80;99.90
18648;DHT22;9453;50.294;18.644;2023-08-01T10:29:41;22.00;99.90
18648;DHT22;9453;50.294;18.644;2023-08-01T10:32:09;22.10;99.90
18648;DHT22;9453;50.294;18.644;2023-08-01T10:34:36;22.10;99.90
18648;DHT22;9453;50.294;18.644;2023-08-01T10:37:05;22.10;99.90
18648;DHT22;9453;50.294;18.644;2023-08-01T10:39:32;22.00;99.90
18648;DHT22;9453;50.294;18.644;2023-08-01T10:41:59;22.00;99.90
18648;DHT22;9453;50.294;18.644;2023-08-01T10:44:27;21.90;99.90
18648;DHT22;9453;50.294;18.644;2023-08-01T10:46:57;21.80;99.90
18648;DHT22;9453;50.294;18.644;2023-08-01T10:49:35;21.70;99.90
18648;DHT22;9453;50.294;18.644;2023-08-01T10:52:02;21.70;99.90
18648;DHT22;9453;50.294;18.644;2023-08-01T10:54:31;21.60;99.90
18648;DHT22;9453;50.294;18.644;2023-08-01T10:56:59;21.70;99.90
18648;DHT22;9453;50.294;18.644;2023-08-01T10:59:27;21.70;99.90
18648;DHT22;9453;50.294;18.644;2023-08-01T11:01:58;21.70;99.90
18648;DHT22;9453;50.294;18.644;2023-08-01T11:04:26;21.70;99.90
18648;DHT22;9453;50.294;18.644;2023-08-01T11:06:54;21.80;99.90
18648;DHT22;9453;50.294;18.644;2023-08-01T11:09:23;21.90;99.90
18648;DHT22;9453;50.294;18.644;2023-08-01T11:11:53;21.80;99.90
18648;DHT22;9453;50.294;18.644;2023-08-01T11:14:21;21.90;99.90
18648;DHT22;9453;50.294;18.644;2023-08-01T11:16:49;21.90;99.90
18648;DHT22;9453;50.294;18.644;2023-08-01T11:19:20;21.80;99.90
18648;DHT22;9453;50.294;18.644;2023-08-01T11:21:47;21.80;99.90
18648;DHT22;9453;50.294;18.644;2023-08-01T11:24:16;21.70;99.90
18648;DHT22;9453;50.294;18.644;2023-08-01T11:26:44;21.50;99.90
18648;DHT22;9453;50.294;18.644;2023-08-01T11:29:14;21.50;99.90
18648;DHT22;9453;50.294;18.644;2023-08-01T11:31:51;21.40;99.90
18648;DHT22;9453;50.294;18.644;2023-08-01T11:34:19;21.30;99.90
18648;DHT22;9453;50.294;18.644;2023-08-01T11:36:46;21.20;99.90
18648;DHT22;9453;50.294;18.644;2023-08-01T11:39:14;21.20;99.90
18648;DHT22;9453;50.294;18.644;2023-08-01T11:41:42;21.30;99.90
18648;DHT22;9453;50.294;18.644;2023-08-01T11:44:09;21.30;99.90
18648;DHT22;9453;50.294;18.644;2023-08-01T11:46:38;21.40;99.90
18648;DHT22;9453;50.294;18.644;2023-08-01T11:49:07;21.50;99.90
18648;DHT22;9453;50.294;18.644;2023-08-01T11:51:39;21.60;99.90
18648;DHT22;9453;50.294;18.644;2023-08-01T11:54:06;21.80;99.90
18648;DHT22;9453;50.294;18.644;2023-08-01T11:56:35;21.90;99.90
18648;DHT22;9453;50.294;18.644;2023-08-01T11:59:08;22.00;99.90
18648;DHT22;9453;50.294;18.644;2023-08-01T12:01:39;22.10;99.90
18648;DHT22;9453;50.294;18.644;2023-08-01T12:04:06;22.20;99.90
18648;DHT22;9453;50.294;18.644;2023-08-01T12:06:34;22.20;99.90
18648;DHT22;9453;50.294;18.644;2023-08-01T12:09:07;22.30;99.90
18648;DHT22;9453;50.294;18.644;2023-08-01T12:11:34;22.30;99.90
18648;DHT22;9453;50.294;18.644;2023-08-01T12:14:02;22.30;99.90
18648;DHT22;9453;50.294;18.644;2023-08-01T12:16:29;22.20;99.90
18648;DHT22;9453;50.294;18.644;2023-08-01T12:18:58;22.20;99.90
18648;DHT22;9453;50.294;18.644;2023-08-01T12:21:25;22.30;99.90
18648;DHT22;9453;50.294;18.644;2023-08-01T12:23:52;22.20;99.90
18648;DHT22;9453;50.294;18.644;2023-08-01T12:26:19;22.30;99.90
18648;DHT22;9453;50.294;18.644;2023-08-01T12:28:46;22.30;99.90
18648;DHT22;9453;50.294;18.644;2023-08-01T12:31:16;22.40;99.90
18648;DHT22;9453;50.294;18.644;2023-08-01T12:33:44;22.40;99.90
18648;DHT22;9453;50.294;18.644;2023-08-01T12:36:12;22.30;99.90
18648;DHT22;9453;50.294;18.644;2023-08-01T12:38:39;22.30;99.90
18648;DHT22;9453;50.294;18.644;2023-08-01T12:41:06;22.20;99.90
18648;DHT22;9453;50.294;18.644;2023-08-01T12:43:33;22.20;99.90
18648;DHT22;9453;50.294;18.644;2023-08-01T12:46:00;22.10;99.90
18648;DHT22;9453;50.294;18.644;2023-08-01T12:48:28;22.00;99.90
18648;DHT22;9453;50.294;18.644;2023-08-01T12:50:55;21.80;99.90
18648;DHT22;9453;50.294;18.644;2023-08-01T12:53:23;21.80;99.90
18648;DHT22;9453;50.294;18.644;2023-08-01T12:55:51;21.70;99.90
18648;DHT22;9453;50.294;18.644;2023-08-01T12:58:18;21.70;99.90
18648;DHT22;9453;50.294;18.644;2023-08-01T13:00:45;21.70;99.90
18648;DHT22;9453;50.294;18.644;2023-08-01T13:03:13;21.70;99.90
18648;DHT22;9453;50.294;18.644;2023-08-01T13:05:41;21.70;99.90
18648;DHT22;9453;50.294;18.644;2023-08-01T13:08:08;21.60;99.90
18648;DHT22;9453;50.294;18.644;2023-08-01T13:10:38;21.60;99.90
18648;DHT22;9453;50.294;18.644;2023-08-01T13:13:05;21.50;99.90
18648;DHT22;9453;50.294;18.644;2023-08-01T13:15:32;21.40;99.90
18648;DHT22;9453;50.294;18.644;2023-08-01T13:17:59;21.30;99.90
18648;DHT22;9453;50.294;18.644;2023-08-01T13:20:26;21.10;99.90
18648;DHT22;9453;50.294;18.644;2023-08-01T13:22:53;21.00;99.90
18648;DHT22;9453;50.294;18.644;2023-08-01T13:25:20;20.90;99.90
18648;DHT22;9453;50.294;18.644;2023-08-01T13:27:48;20.80;99.90
18648;DHT22;9453;50.294;18.644;2023-08-01T13:30:15;20.80;99.90
18648;DHT22;9453;50.294;18.644;2023-08-01T13:32:43;20.80;99.90
18648;DHT22;9453;50.294;18.644;2023-08-01T13:35:10;20.80;99.90
18648;DHT22;9453;50.294;18.644;2023-08-01T13:37:37;20.80;99.90
18648;DHT22;9453;50.294;18.644;2023-08-01T13:40:05;20.80;99.90
18648;DHT22;9453;50.294;18.644;2023-08-01T13:42:32;20.80;99.90
18648;DHT22;9453;50.294;18.644;2023-08-01T13:45:01;20.90;99.90
18648;DHT22;9453;50.294;18.644;2023-08-01T13:47:27;20.90;99.90
18648;DHT22;9453;50.294;18.644;2023-08-01T13:49:54;21.00;99.90
18648;DHT22;9453;50.294;18.644;2023-08-01T13:52:21;21.00;99.90
18648;DHT22;9453;50.294;18.644;2023-08-01T13:54:48;21.10;99.90
18648;DHT22;9453;50.294;18.644;2023-08-01T13:57:15;21.10;99.90
18648;DHT22;9453;50.294;18.644;2023-08-01T13:59:42;21.10;99.90
18648;DHT22;9453;50.294;18.644;2023-08-01T14:02:10;21.10;99.90
18648;DHT22;9453;50.294;18.644;2023-08-01T14:04:37;21.20;99.90
18648;DHT22;9453;50.294;18.644;2023-08-01T14:07:04;21.20;99.90
18648;DHT22;9453;50.294;18.644;2023-08-01T14:09:31;21.30;99.90
18648;DHT22;9453;50.294;18.644;2023-08-01T14:12:00;21.50;99.90
18648;DHT22;9453;50.294;18.644;2023-08-01T14:14:27;21.50;99.90
18648;DHT22;9453;50.294;18.644;2023-08-01T14:16:54;21.50;99.90
18648;DHT22;9453;50.294;18.644;2023-08-01T14:19:22;21.50;99.90
18648;DHT22;9453;50.294;18.644;2023-08-01T14:21:55;21.50;99.90
18648;DHT22;9453;50.294;18.644;2023-08-01T14:24:22;21.50;99.90
18648;DHT22;9453;50.294;18.644;2023-08-01T14:26:49;21.50;99.90
18648;DHT22;9453;50.294;18.644;2023-08-01T14:29:16;21.50;99.90
18648;DHT22;9453;50.294;18.644;2023-08-01T14:31:44;21.50;99.90
18648;DHT22;9453;50.294;18.644;2023-08-01T14:34:11;21.40;99.90
18648;DHT22;9453;50.294;18.644;2023-08-01T14:36:39;21.40;99.90
18648;DHT22;9453;50.294;18.644;2023-08-01T14:39:06;21.40;99.90
18648;DHT22;9453;50.294;18.644;2023-08-01T14:41:33;21.30;99.90
18648;DHT22;9453;50.294;18.644;2023-08-01T14:44:00;21.20;99.90
18648;DHT22;9453;50.294;18.644;2023-08-01T14:46:27;21.00;99.90
18648;DHT22;9453;50.294;18.644;2023-08-01T14:48:54;20.90;99.90
18648;DHT22;9453;50.294;18.644;2023-08-01T14:51:20;20.80;99.90
18648;DHT22;9453;50.294;18.644;2023-08-01T14:53:49;20.70;99.90
18648;DHT22;9453;50.294;18.644;2023-08-01T14:56:16;20.70;99.90
18648;DHT22;9453;50.294;18.644;2023-08-01T14:58:43;20.60;99.90
18648;DHT22;9453;50.294;18.644;2023-08-01T15:01:13;20.50;99.90
18648;DHT22;9453;50.294;18.644;2023-08-01T15:03:40;20.40;99.90
18648;DHT22;9453;50.294;18.644;2023-08-01T15:06:08;20.50;99.90
18648;DHT22;9453;50.294;18.644;2023-08-01T15:08:35;20.40;99.90
18648;DHT22;9453;50.294;18.644;2023-08-01T15:11:07;20.40;99.90
18648;DHT22;9453;50.294;18.644;2023-08-01T15:13:34;20.30;99.90
18648;DHT22;9453;50.294;18.644;2023-08-01T15:16:01;20.20;99.90
18648;DHT22;9453;50.294;18.644;2023-08-01T15:18:28;20.10;99.90
18648;DHT22;9453;50.294;18.644;2023-08-01T15:20:55;20.10;99.90
18648;DHT22;9453;50.294;18.644;2023-08-01T15:23:22;20.00;99.90
18648;DHT22;9453;50.294;18.644;2023-08-01T15:25:53;20.00;99.90
18648;DHT22;9453;50.294;18.644;2023-08-01T15:28:23;19.90;99.90
18648;DHT22;9453;50.294;18.644;2023-08-01T15:31:01;19.80;99.90
18648;DHT22;9453;50.294;18.644;2023-08-01T15:33:29;19.80;99.90
18648;DHT22;9453;50.294;18.644;2023-08-01T15:36:00;19.70;99.90
18648;DHT22;9453;50.294;18.644;2023-08-01T15:38:27;19.70;99.90
18648;DHT22;9453;50.294;18.644;2023-08-01T15:40:54;19.60;99.90
18648;DHT22;9453;50.294;18.644;2023-08-01T15:43:23;19.50;99.90
18648;DHT22;9453;50.294;18.644;2023-08-01T15:45:50;19.50;99.90
18648;DHT22;9453;50.294;18.644;2023-08-01T15:48:17;19.50;99.90
18648;DHT22;9453;50.294;18.644;2023-08-01T15:50:44;19.50;99.90
18648;DHT22;9453;50.294;18.644;2023-08-01T15:53:12;19.50;99.90
18648;DHT22;9453;50.294;18.644;2023-08-01T15:55:39;19.50;99.90
18648;DHT22;9453;50.294;18.644;2023-08-01T15:58:05;19.40;99.90
18648;DHT22;9453;50.294;18.644;2023-08-01T16:00:35;19.30;99.90
18648;DHT22;9453;50.294;18.644;2023-08-01T16:03:03;19.20;99.90
18648;DHT22;9453;50.294;18.644;2023-08-01T16:05:31;19.20;99.90
18648;DHT22;9453;50.294;18.644;2023-08-01T16:07:59;19.20;99.90
18648;DHT22;9453;50.294;18.644;2023-08-01T16:10:26;19.10;99.90
18648;DHT22;9453;50.294;18.644;2023-08-01T16:12:53;19.10;99.90
18648;DHT22;9453;50.294;18.644;2023-08-01T16:15:20;19.10;99.90
18648;DHT22;9453;50.294;18.644;2023-08-01T16:17:48;19.00;99.90
18648;DHT22;9453;50.294;18.644;2023-08-01T16:20:15;19.00;99.90
18648;DHT22;9453;50.294;18.644;2023-08-01T16:22:42;19.00;99.90
18648;DHT22;9453;50.294;18.644;2023-08-01T16:25:09;19.00;99.90
18648;DHT22;9453;50.294;18.644;2023-08-01T16:27:37;18.90;99.90
18648;DHT22;9453;50.294;18.644;2023-08-01T16:30:05;18.90;99.90
18648;DHT22;9453;50.294;18.644;2023-08-01T16:32:32;18.90;99.90
18648;DHT22;9453;50.294;18.644;2023-08-01T16:35:00;18.90;99.90
18648;DHT22;9453;50.294;18.644;2023-08-01T16:37:27;18.90;99.90
18648;DHT22;9453;50.294;18.644;2023-08-01T16:39:54;18.80;99.90
18648;DHT22;9453;50.294;18.644;2023-08-01T16:42:21;18.80;99.90
18648;DHT22;9453;50.294;18.644;2023-08-01T16:44:48;18.80;99.90
18648;DHT22;9453;50.294;18.644;2023-08-01T16:47:15;18.80;99.90
18648;DHT22;9453;50.294;18.644;2023-08-01T16:49:46;18.80;99.90
18648;DHT22;9453;50.294;18.644;2023-08-01T16:52:15;18.70;99.90
18648;DHT22;9453;50.294;18.644;2023-08-01T16:54:42;18.80;99.90
18648;DHT22;9453;50.294;18.644;2023-08-01T16:57:09;18.70;99.90
18648;DHT22;9453;50.294;18.644;2023-08-01T16:59:37;18.70;99.90
18648;DHT22;9453;50.294;18.644;2023-08-01T17:02:05;18.70;99.90
18648;DHT22;9453;50.294;18.644;2023-08-01T17:04:34;18.70;99.90
18648;DHT22;9453;50.294;18.644;2023-08-01T17:07:01;18.60;99.90
18648;DHT22;9453;50.294;18.644;2023-08-01T17:09:29;18.60;99.90
18648;DHT22;9453;50.294;18.644;2023-08-01T17:11:57;18.60;99.90
18648;DHT22;9453;50.294;18.644;2023-08-01T17:14:24;18.50;99.90
18648;DHT22;9453;50.294;18.644;2023-08-01T17:16:50;18.50;99.90
18648;DHT22;9453;50.294;18.644;2023-08-01T17:19:17;18.50;99.90
18648;DHT22;9453;50.294;18.644;2023-08-01T17:21:44;18.50;99.90
18648;DHT22;9453;50.294;18.644;2023-08-01T17:24:11;18.40;99.90
18648;DHT22;9453;50.294;18.644;2023-08-01T17:26:40;18.40;99.90
18648;DHT22;9453;50.294;18.644;2023-08-01T17:29:07;18.40;99.90
18648;DHT22;9453;50.294;18.644;2023-08-01T17:31:35;18.40;99.90
18648;DHT22;9453;50.294;18.644;2023-08-01T17:34:02;18.40;99.90
18648;DHT22;9453;50.294;18.644;2023-08-01T17:36:29;18.30;99.90
18648;DHT22;9453;50.294;18.644;2023-08-01T17:38:57;18.30;99.90
18648;DHT22;9453;50.294;18.644;2023-08-01T17:41:24;18.30;99.90
18648;DHT22;9453;50.294;18.644;2023-08-01T17:43:55;18.30;99.90
18648;DHT22;9453;50.294;18.644;2023-08-01T17:46:22;18.30;99.90
18648;DHT22;9453;50.294;18.644;2023-08-01T17:48:49;18.30;99.90
18648;DHT22;9453;50.294;18.644;2023-08-01T17:51:17;18.20;99.90
18648;DHT22;9453;50.294;18.644;2023-08-01T17:53:44;18.20;99.90
18648;DHT22;9453;50.294;18.644;2023-08-01T17:56:12;18.20;99.90
18648;DHT22;9453;50.294;18.644;2023-08-01T17:58:39;18.20;99.90
18648;DHT22;9453;50.294;18.644;2023-08-01T18:01:08;18.20;99.90
18648;DHT22;9453;50.294;18.644;2023-08-01T18:03:35;18.20;99.90
18648;DHT22;9453;50.294;18.644;2023-08-01T18:06:06;18.10;99.90
18648;DHT22;9453;50.294;18.644;2023-08-01T18:08:33;18.10;99.90
18648;DHT22;9453;50.294;18.644;2023-08-01T18:11:00;18.10;99.90
18648;DHT22;9453;50.294;18.644;2023-08-01T18:13:27;18.10;99.90
18648;DHT22;9453;50.294;18.644;2023-08-01T18:15:54;18.10;99.90
18648;DHT22;9453;50.294;18.644;2023-08-01T18:18:23;18.00;99.90
18648;DHT22;9453;50.294;18.644;2023-08-01T18:21:01;18.00;99.90
18648;DHT22;9453;50.294;18.644;2023-08-01T18:23:28;18.00;99.90
18648;DHT22;9453;50.294;18.644;2023-08-01T18:25:55;18.00;99.90
18648;DHT22;9453;50.294;18.644;2023-08-01T18:28:22;17.90;99.90
18648;DHT22;9453;50.294;18.644;2023-08-01T18:30:49;17.90;99.90
18648;DHT22;9453;50.294;18.644;2023-08-01T18:33:16;18.00;99.90
18648;DHT22;9453;50.294;18.644;2023-08-01T18:35:44;18.00;99.90
18648;DHT22;9453;50.294;18.644;2023-08-01T18:38:12;17.90;99.90
18648;DHT22;9453;50.294;18.644;2023-08-01T18:40:39;17.90;99.90
18648;DHT22;9453;50.294;18.644;2023-08-01T18:43:06;17.90;99.90
18648;DHT22;9453;50.294;18.644;2023-08-01T18:45:35;17.90;99.90
18648;DHT22;9453;50.294;18.644;2023-08-01T18:48:02;17.90;99.90
18648;DHT22;9453;50.294;18.644;2023-08-01T18:50:30;17.90;99.90
18648;DHT22;9453;50.294;18.644;2023-08-01T18:53:00;17.90;99.90
18648;DHT22;9453;50.294;18.644;2023-08-01T18:55:27;17.90;99.90
18648;DHT22;9453;50.294;18.644;2023-08-01T18:57:54;17.90;99.90
18648;DHT22;9453;50.294;18.644;2023-08-01T19:00:24;17.90;99.90
18648;DHT22;9453;50.294;18.644;2023-08-01T19:02:51;17.80;99.90
18648;DHT22;9453;50.294;18.644;2023-08-01T19:05:18;17.80;99.90
18648;DHT22;9453;50.294;18.644;2023-08-01T19:07:45;17.80;99.90
18648;DHT22;9453;50.294;18.644;2023-08-01T19:10:14;17.80;99.90
18648;DHT22;9453;50.294;18.644;2023-08-01T19:12:42;17.80;99.90
18648;DHT22;9453;50.294;18.644;2023-08-01T19:15:10;17.70;99.90
18648;DHT22;9453;50.294;18.644;2023-08-01T19:17:37;17.80;99.90
18648;DHT22;9453;50.294;18.644;2023-08-01T19:20:05;17.70;99.90
18648;DHT22;9453;50.294;18.644;2023-08-01T19:22:32;17.70;99.90
18648;DHT22;9453;50.294;18.644;2023-08-01T19:24:59;17.70;99.90
18648;DHT22;9453;50.294;18.644;2023-08-01T19:27:28;17.70;99.90
18648;DHT22;9453;50.294;18.644;2023-08-01T19:29:56;17.70;99.90
18648;DHT22;9453;50.294;18.644;2023-08-01T19:32:23;17.70;99.90
18648;DHT22;9453;50.294;18.644;2023-08-01T19:34:51;17.70;99.90